sensor_id;sensor_type;location;lat;lon;timestamp;temperature;humidity
16674;DHT22;8450;52.654;10.326;2023-03-01T07:09:17;-7.20;99.90
16674;DHT22;8450;52.654;10.326;2023-03-01T07:11:45;-7.20;99.90
16674;DHT22;8450;52.654;10.326;2023-03-01T07:14:10;-7.20;99.90
16674;DHT22;8450;52.654;10.326;2023-03-01T07:16:36;-7.20;99.90
16674;DHT22;8450;52.654;10.326;2023-03-01T07:19:01;-7.20;99.90
16674;DHT22;8450;52.654;10.326;2023-03-01T07:21:27;-7.20;99.90
16674;DHT22;8450;52.654;10.326;2023-03-01T07:23:52;-7.10;99.90
16674;DHT22;8450;52.654;10.326;2023-03-01T07:26:18;-7.10;99.90
16674;DHT22;8450;52.654;10.326;2023-03-01T07:28:43;-7.00;99.90
16674;DHT22;8450;52.654;10.326;2023-03-01T07:31:09;-7.00;99.90
16674;DHT22;8450;52.654;10.326;2023-03-01T07:33:34;-7.00;99.90
16674;DHT22;8450;52.654;10.326;2023-03-01T07:36:01;-6.90;99.90
16674;DHT22;8450;52.654;10.326;2023-03-01T07:38:28;-6.90;99.90
16674;DHT22;8450;52.654;10.326;2023-03-01T07:41:01;-6.80;99.90
16674;DHT22;8450;52.654;10.326;2023-03-01T07:48:43;-6.60;99.90
16674;DHT22;8450;52.654;10.326;2023-03-01T07:51:10;-6.50;99.90
16674;DHT22;8450;52.654;10.326;2023-03-01T07:53:35;-6.40;99.90
16674;DHT22;8450;52.654;10.326;2023-03-01T07:56:09;-6.30;99.90
16674;DHT22;8450;52.654;10.326;2023-03-01T07:58:37;-6.10;99.90
16674;DHT22;8450;52.654;10.326;2023-03-01T08:01:04;-6.00;99.90
16674;DHT22;8450;52.654;10.326;2023-03-01T08:06:20;-5.60;99.90
16674;DHT22;8450;52.654;10.326;2023-03-01T08:08:45;-5.40;99.90
16674;DHT22;8450;52.654;10.326;2023-03-01T08:11:12;-5.10;99.90
16674;DHT22;8450;52.654;10.326;2023-03-01T08:16:20;-4.70;99.90
16674;DHT22;8450;52.654;10.326;2023-03-01T08:18:46;-4.40;99.90
16674;DHT22;8450;52.654;10.326;2023-03-01T08:21:14;-4.20;99.90
16674;DHT22;8450;52.654;10.326;2023-03-01T08:31:33;-3.30;99.90
16674;DHT22;8450;52.654;10.326;2023-03-01T08:34:02;-3.10;99.90
16674;DHT22;8450;52.654;10.326;2023-03-01T08:36:31;-2.90;99.90
16674;DHT22;8450;52.654;10.326;2023-03-01T08:38:57;-2.60;99.90
16674;DHT22;8450;52.654;10.326;2023-03-01T08:41:23;-2.40;99.90
16674;DHT22;8450;52.654;10.326;2023-03-01T08:43:49;-2.10;99.90
16674;DHT22;8450;52.654;10.326;2023-03-01T08:46:14;-1.80;99.90
16674;DHT22;8450;52.654;10.326;2023-03-01T08:48:40;-1.50;99.90
16674;DHT22;8450;52.654;10.326;2023-03-01T08:51:13;-1.30;99.90
16674;DHT22;8450;52.654;10.326;2023-03-01T08:53:39;-1.00;99.90
16674;DHT22;8450;52.654;10.326;2023-03-01T08:56:05;-0.70;99.90
16674;DHT22;8450;52.654;10.326;2023-03-01T08:58:31;-0.40;99.90
16674;DHT22;8450;52.654;10.326;2023-03-01T09:00:57;-0.20;99.90
16674;DHT22;8450;52.654;10.326;2023-03-01T09:03:23;0.10;99.90
16674;DHT22;8450;52.654;10.326;2023-03-01T09:05:50;0.40;99.90
16674;DHT22;8450;52.654;10.326;2023-03-01T09:08:16;0.70;99.90
16674;DHT22;8450;52.654;10.326;2023-03-01T09:10:42;1.00;99.90
16674;DHT22;8450;52.654;10.326;2023-03-01T09:13:08;1.40;99.90
16674;DHT22;8450;52.654;10.326;2023-03-01T09:15:34;1.80;99.90
16674;DHT22;8450;52.654;10.326;2023-03-01T09:18:01;2.20;99.90
16674;DHT22;8450;52.654;10.326;2023-03-01T09:20:27;2.60;99.90
16674;DHT22;8450;52.654;10.326;2023-03-01T09:22:52;2.90;99.90
16674;DHT22;8450;52.654;10.326;2023-03-01T09:27:54;3.40;99.90
16674;DHT22;8450;52.654;10.326;2023-03-01T09:30:22;3.70;99.90
16674;DHT22;8450;52.654;10.326;2023-03-01T09:32:47;4.10;99.90
16674;DHT22;8450;52.654;10.326;2023-03-01T09:37:55;4.80;99.90
16674;DHT22;8450;52.654;10.326;2023-03-01T09:40:23;5.20;99.90
16674;DHT22;8450;52.654;10.326;2023-03-01T09:48:23;6.10;99.90
16674;DHT22;8450;52.654;10.326;2023-03-01T09:50:51;6.40;99.90
16674;DHT22;8450;52.654;10.326;2023-03-01T10:09:37;8.30;99.90
16674;DHT22;8450;52.654;10.326;2023-03-01T10:12:14;8.50;99.90
16674;DHT22;8450;52.654;10.326;2023-03-01T10:15:00;8.80;99.90
16674;DHT22;8450;52.654;10.326;2023-03-01T10:17:38;9.00;99.90
16674;DHT22;8450;52.654;10.326;2023-03-01T10:22:47;9.40;99.90
16674;DHT22;8450;52.654;10.326;2023-03-01T10:28:23;9.80;99.90
16674;DHT22;8450;52.654;10.326;2023-03-01T10:30:50;10.00;99.90
16674;DHT22;8450;52.654;10.326;2023-03-01T10:35:51;10.40;99.90
16674;DHT22;8450;52.654;10.326;2023-03-01T10:38:17;10.60;99.90
16674;DHT22;8450;52.654;10.326;2023-03-01T10:40:54;10.70;99.90
16674;DHT22;8450;52.654;10.326;2023-03-01T10:43:21;10.80;99.90
16674;DHT22;8450;52.654;10.326;2023-03-01T10:45:48;11.00;99.90
16674;DHT22;8450;52.654;10.326;2023-03-01T10:48:19;11.10;99.90
16674;DHT22;8450;52.654;10.326;2023-03-01T10:51:04;11.30;99.90
16674;DHT22;8450;52.654;10.326;2023-03-01T10:56:14;11.50;99.90
16674;DHT22;8450;52.654;10.326;2023-03-01T10:58:56;11.70;99.90
16674;DHT22;8450;52.654;10.326;2023-03-01T11:09:18;12.20;99.90
16674;DHT22;8450;52.654;10.326;2023-03-01T11:11:45;12.30;99.90
16674;DHT22;8450;52.654;10.326;2023-03-01T11:17:05;12.40;99.90
16674;DHT22;8450;52.654;10.326;2023-03-01T11:19:36;12.40;99.90
16674;DHT22;8450;52.654;10.326;2023-03-01T11:22:07;12.50;99.90
16674;DHT22;8450;52.654;10.326;2023-03-01T11:27:29;12.60;99.90
16674;DHT22;8450;52.654;10.326;2023-03-01T11:30:03;12.70;99.90
16674;DHT22;8450;52.654;10.326;2023-03-01T11:32:36;12.80;99.90
16674;DHT22;8450;52.654;10.326;2023-03-01T11:40:41;13.20;99.90
16674;DHT22;8450;52.654;10.326;2023-03-01T12:08:48;14.00;99.90
16674;DHT22;8450;52.654;10.326;2023-03-01T12:17:37;14.20;99.90
16674;DHT22;8450;52.654;10.326;2023-03-01T12:28:50;14.40;99.90
16674;DHT22;8450;52.654;10.326;2023-03-01T12:34:42;14.30;99.90
16674;DHT22;8450;52.654;10.326;2023-03-01T12:37:25;14.20;99.90
16674;DHT22;8450;52.654;10.326;2023-03-01T12:45:32;13.60;99.90
16674;DHT22;8450;52.654;10.326;2023-03-01T12:48:05;13.40;99.90
16674;DHT22;8450;52.654;10.326;2023-03-01T12:50:41;13.20;99.90
16674;DHT22;8450;52.654;10.326;2023-03-01T12:55:56;12.60;99.90
16674;DHT22;8450;52.654;10.326;2023-03-01T13:01:35;12.10;99.90
16674;DHT22;8450;52.654;10.326;2023-03-01T13:09:42;11.40;99.90
16674;DHT22;8450;52.654;10.326;2023-03-01T13:44:32;10.60;99.90
16674;DHT22;8450;52.654;10.326;2023-03-01T13:49:57;10.70;99.90
16674;DHT22;8450;52.654;10.326;2023-03-01T13:52:44;10.80;99.90
16674;DHT22;8450;52.654;10.326;2023-03-01T14:00:36;11.20;99.90
16674;DHT22;8450;52.654;10.326;2023-03-01T14:03:05;11.20;99.90
16674;DHT22;8450;52.654;10.326;2023-03-01T14:08:20;11.20;99.90
16674;DHT22;8450;52.654;10.326;2023-03-01T14:17:48;11.60;99.90
16674;DHT22;8450;52.654;10.326;2023-03-01T14:19:47;11.70;99.90
16674;DHT22;8450;52.654;10.326;2023-03-01T14:22:23;11.50;99.90
16674;DHT22;8450;52.654;10.326;2023-03-01T14:25:00;11.50;99.90
16674;DHT22;8450;52.654;10.326;2023-03-01T14:27:32;11.60;99.90
16674;DHT22;8450;52.654;10.326;2023-03-01T14:30:03;11.40;99.90
16674;DHT22;8450;52.654;10.326;2023-03-01T14:32:30;11.50;99.90
16674;DHT22;8450;52.654;10.326;2023-03-01T14:34:58;11.70;99.90
16674;DHT22;8450;52.654;10.326;2023-03-01T14:37:30;11.60;99.90
16674;DHT22;8450;52.654;10.326;2023-03-01T14:39:58;11.80;99.90
16674;DHT22;8450;52.654;10.326;2023-03-01T14:42:28;11.70;99.90
16674;DHT22;8450;52.654;10.326;2023-03-01T14:50:36;11.40;99.90
16674;DHT22;8450;52.654;10.326;2023-03-01T14:53:07;11.30;99.90
16674;DHT22;8450;52.654;10.326;2023-03-01T14:55:42;11.20;99.90
16674;DHT22;8450;52.654;10.326;2023-03-01T14:58:12;11.20;99.90
16674;DHT22;8450;52.654;10.326;2023-03-01T15:00:39;10.80;99.90
16674;DHT22;8450;52.654;10.326;2023-03-01T15:05:45;10.90;99.90
16674;DHT22;8450;52.654;10.326;2023-03-01T15:08:19;10.60;99.90
16674;DHT22;8450;52.654;10.326;2023-03-01T15:10:57;10.70;99.90
16674;DHT22;8450;52.654;10.326;2023-03-01T15:13:25;10.70;99.90
16674;DHT22;8450;52.654;10.326;2023-03-01T15:15:53;10.70;99.90
16674;DHT22;8450;52.654;10.326;2023-03-01T15:18:22;10.50;99.90
16674;DHT22;8450;52.654;10.326;2023-03-01T15:20:49;10.40;99.90
16674;DHT22;8450;52.654;10.326;2023-03-01T15:25:58;10.30;99.90
16674;DHT22;8450;52.654;10.326;2023-03-01T15:28:29;10.10;99.90
16674;DHT22;8450;52.654;10.326;2023-03-01T15:31:42;9.90;99.90
16674;DHT22;8450;52.654;10.326;2023-03-01T15:36:41;9.70;99.90
16674;DHT22;8450;52.654;10.326;2023-03-01T15:39:33;9.70;99.90
16674;DHT22;8450;52.654;10.326;2023-03-01T15:42:35;9.60;99.90
16674;DHT22;8450;52.654;10.326;2023-03-01T15:45:20;9.50;99.90
16674;DHT22;8450;52.654;10.326;2023-03-01T15:47:47;9.40;99.90
16674;DHT22;8450;52.654;10.326;2023-03-01T15:50:22;9.40;99.90
16674;DHT22;8450;52.654;10.326;2023-03-01T15:52:49;9.40;99.90
16674;DHT22;8450;52.654;10.326;2023-03-01T15:55:20;9.30;99.90
16674;DHT22;8450;52.654;10.326;2023-03-01T15:57:47;9.30;99.90
16674;DHT22;8450;52.654;10.326;2023-03-01T16:00:14;9.20;99.90
